METAR Data
IDs: Format: Raw Decoded Include TAF

Data at: 0928 UTC 13 Aug 2022

KHWD 130854Z 00000KT 10SM CLR 16/12 A3001 RMK AO2 SLP170 T01610122 58004
No TAF found for KHWD

KRDD 130853Z 01004KT 10SM CLR 23/01 A2995 RMK AO2 SLP136 T02330011 51008

KRDD 130520Z 1306/1406 VRB04KT P6SM SKC
  FM132200 19007KT P6SM SKC


KRTS 130915Z AUTO 32009KT 10SM CLR 11/M05 A3021 RMK AO2
No TAF found for KRTS